createdAt,value
2019-02-09T00:01:59.567Z,61.33
2019-02-09T00:04:28.729Z,62.87
2019-02-09T00:07:14.691Z,64.47
2019-02-09T00:09:35.138Z,61.20
2019-02-09T00:12:06.293Z,65.37
2019-02-09T00:14:35.215Z,63.67
2019-02-09T00:17:04.369Z,65.80
2019-02-09T00:25:56.444Z,70.53
2019-02-09T00:28:25.537Z,64.80
2019-02-09T00:37:02.366Z,64.47
2019-02-09T00:39:22.511Z,65.63
2019-02-09T00:43:07.095Z,65.57
2019-02-09T00:44:54.073Z,64.80
2019-02-09T00:50:08.321Z,61.90
2019-02-09T00:52:46.671Z,65.37
2019-02-09T00:55:30.114Z,68.70
2019-02-09T00:58:07.809Z,68.63
2019-02-09T01:03:57.012Z,63.57
2019-02-09T01:06:49.117Z,67.10
2019-02-09T01:09:31.597Z,68.23
2019-02-09T01:15:46.655Z,67.17
2019-02-09T01:20:13.898Z,67.03
2019-02-09T01:23:00.823Z,66.97
2019-02-09T01:25:44.912Z,67.37
2019-02-09T01:28:21.776Z,65.53
2019-02-09T01:31:03.037Z,67.93
2019-02-09T01:33:45.473Z,65.37
2019-02-09T01:36:17.583Z,66.83
2019-02-09T01:38:57.765Z,64.60
2019-02-09T01:41:28.947Z,71.23
2019-02-09T01:44:06.005Z,72.87
2019-02-09T01:47:19.072Z,64.83
2019-02-09T01:49:13.636Z,68.40
2019-02-09T01:54:37.574Z,64.83
2019-02-09T01:57:11.408Z,66.97
2019-02-09T01:59:38.048Z,69.70
2019-02-09T02:02:07.202Z,66.77
2019-02-09T02:04:36.347Z,69.47
2019-02-09T02:07:07.153Z,67.33
2019-02-09T02:09:36.377Z,69.40
2019-02-09T02:12:06.037Z,69.67
2019-02-09T02:14:43.778Z,66.87
2019-02-09T02:17:12.771Z,69.03
2019-02-09T02:19:45.353Z,69.93
2019-02-09T02:22:16.609Z,75.50
2019-02-09T02:24:49.255Z,70.00
2019-02-09T02:27:18.496Z,67.93
2019-02-09T02:29:50.884Z,72.23
2019-02-09T02:32:22.955Z,66.17
2019-02-09T02:34:55.833Z,73.03
2019-02-09T02:37:32.138Z,70.37
2019-02-09T02:40:00.327Z,65.17
2019-02-09T02:42:30.471Z,65.97
2019-02-09T02:44:59.630Z,64.73
2019-02-09T02:47:31.766Z,72.03
2019-02-09T02:50:13.612Z,66.00
2019-02-09T02:52:33.750Z,67.40
2019-02-09T02:55:20.894Z,64.33
2019-02-09T02:57:42.772Z,77.83
2019-02-09T03:00:33.262Z,69.90
2019-02-09T03:03:00.990Z,67.13
2019-02-09T03:05:36.263Z,68.50
2019-02-09T03:08:04.250Z,67.47
2019-02-09T03:21:49.709Z,68.47
2019-02-09T03:38:50.841Z,63.17
2019-02-09T03:51:03.578Z,67.23
2019-02-09T03:53:41.586Z,61.57
2019-02-09T04:02:54.799Z,63.40
2019-02-09T04:05:39.244Z,58.43
2019-02-09T04:08:01.499Z,65.70
2019-02-09T04:10:30.691Z,64.47
2019-02-09T04:13:03.014Z,60.97
2019-02-09T04:15:32.064Z,64.80
2019-02-09T04:18:01.004Z,61.03
2019-02-09T04:20:38.184Z,63.00
2019-02-09T04:23:18.686Z,59.70
2019-02-09T04:25:50.755Z,57.47
2019-02-09T04:28:20.005Z,59.27
2019-02-09T04:31:05.474Z,62.57
2019-02-09T04:33:31.731Z,59.00
2019-02-09T04:36:14.715Z,58.73
2019-02-09T04:38:48.703Z,59.77
2019-02-09T04:41:19.550Z,59.80
2019-02-09T04:43:48.413Z,55.10
2019-02-09T04:46:17.324Z,54.77
2019-02-09T04:48:46.186Z,58.30
2019-02-09T04:51:15.168Z,55.17
2019-02-09T04:53:43.963Z,53.33
2019-02-09T04:56:12.990Z,52.77
2019-02-09T04:58:41.909Z,55.30
2019-02-09T05:01:14.104Z,52.97
2019-02-09T05:03:41.686Z,51.57
2019-02-09T05:06:12.482Z,52.30
2019-02-09T05:08:41.491Z,48.30
2019-02-09T05:11:12.482Z,55.23
2019-02-09T05:13:41.095Z,46.50
2019-02-09T05:16:10.021Z,48.63
2019-02-09T05:18:38.964Z,49.30
2019-02-09T05:21:07.774Z,49.57
2019-02-09T05:23:36.732Z,48.97
2019-02-09T05:26:05.647Z,54.83
2019-02-09T05:28:34.490Z,48.63
2019-02-09T05:31:03.774Z,47.77
2019-02-09T05:33:32.572Z,48.73
2019-02-09T05:36:01.618Z,46.50
2019-02-09T05:38:30.494Z,47.07
2019-02-09T05:40:59.310Z,48.30
2019-02-09T05:43:28.331Z,51.47
2019-02-09T05:45:57.138Z,46.20
2019-02-09T05:48:26.129Z,43.73
2019-02-09T05:50:54.912Z,44.13
2019-02-09T05:53:23.857Z,44.73
2019-02-09T05:55:52.712Z,45.93
2019-02-09T05:58:21.619Z,44.10
2019-02-09T06:00:50.976Z,44.30
2019-02-09T06:03:19.774Z,42.40
2019-02-09T06:05:49.685Z,42.03
2019-02-09T06:08:18.604Z,45.33
2019-02-09T06:10:47.470Z,39.83
2019-02-09T06:13:16.468Z,41.40
2019-02-09T06:15:45.317Z,44.13
2019-02-09T06:18:14.078Z,40.07
2019-02-09T06:20:43.140Z,41.27
2019-02-09T06:23:11.941Z,46.03
2019-02-09T06:25:40.889Z,42.17
2019-02-09T06:28:09.708Z,42.63
2019-02-09T06:30:38.507Z,44.67
2019-02-09T06:33:07.522Z,42.60
2019-02-09T06:35:36.547Z,38.37
2019-02-09T06:38:05.479Z,46.17
2019-02-09T06:40:34.486Z,47.63
2019-02-09T06:43:03.964Z,47.60
2019-02-09T06:45:32.986Z,42.70
2019-02-09T06:48:23.524Z,43.83
2019-02-09T06:50:53.101Z,46.07
2019-02-09T06:53:23.350Z,49.87
2019-02-09T06:55:53.798Z,51.47
2019-02-09T06:58:22.650Z,42.97
2019-02-09T07:00:56.537Z,47.10
2019-02-09T07:03:26.427Z,48.67
2019-02-09T07:06:16.647Z,54.63
2019-02-09T07:08:40.239Z,48.90
2019-02-09T07:11:09.156Z,58.73
2019-02-09T07:13:42.122Z,50.27
2019-02-09T07:16:11.033Z,51.50
2019-02-09T07:18:42.467Z,53.10
2019-02-09T07:21:11.459Z,51.87
2019-02-09T07:23:40.621Z,49.17
2019-02-09T07:26:14.675Z,51.17
2019-02-09T07:28:51.245Z,54.37
2019-02-09T07:31:25.555Z,44.30
2019-02-09T07:33:54.439Z,50.60
2019-02-09T07:36:23.874Z,49.13
2019-02-09T07:38:54.382Z,55.27
2019-02-09T07:41:26.321Z,49.47
2019-02-09T07:44:00.099Z,50.93
2019-02-09T07:46:33.743Z,55.13
2019-02-09T07:49:02.309Z,51.37
2019-02-09T07:51:31.303Z,56.17
2019-02-09T07:54:00.216Z,52.70
2019-02-09T07:56:29.645Z,52.73
2019-02-09T08:01:56.072Z,50.67
2019-02-09T08:04:25.259Z,45.90
2019-02-09T08:06:54.111Z,53.37
2019-02-09T08:09:24.108Z,50.13
2019-02-09T08:11:53.143Z,54.97
2019-02-09T08:14:22.020Z,50.57
2019-02-09T08:17:00.995Z,48.80
2019-02-09T08:22:06.777Z,49.43
2019-02-09T08:24:35.767Z,54.20
2019-02-09T08:27:04.742Z,50.57
2019-02-09T08:29:33.811Z,51.63
2019-02-09T08:32:03.359Z,48.13
2019-02-09T08:34:32.739Z,53.60
2019-02-09T08:37:01.538Z,55.40
2019-02-09T08:39:33.049Z,48.37
2019-02-09T08:42:02.230Z,52.33
2019-02-09T08:44:31.145Z,48.40
2019-02-09T08:47:03.294Z,45.83
2019-02-09T08:49:39.649Z,51.13
2019-02-09T08:52:08.904Z,49.67
2019-02-09T08:57:30.705Z,47.77
2019-02-09T09:00:01.411Z,51.03
2019-02-09T09:02:30.788Z,46.83
2019-02-09T09:05:09.520Z,44.17
2019-02-09T09:07:36.449Z,47.90
2019-02-09T09:10:11.158Z,39.80
2019-02-09T09:12:40.229Z,58.42
2019-02-09T09:15:29.628Z,47.00
2019-02-09T09:18:08.191Z,43.17
2019-02-09T09:21:01.971Z,43.23
2019-02-09T09:27:08.862Z,35.70
2019-02-09T09:33:19.300Z,37.50
2019-02-09T09:35:55.630Z,38.30
2019-02-09T09:38:46.537Z,38.10
2019-02-09T09:41:22.532Z,37.67
2019-02-09T09:43:51.495Z,34.73
2019-02-09T09:46:26.407Z,35.63
2019-02-09T09:48:56.918Z,35.40
2019-02-09T09:51:39.949Z,33.30
2019-02-09T09:54:10.593Z,37.33
2019-02-09T09:56:39.543Z,35.97
2019-02-09T09:59:26.551Z,34.30
2019-02-09T10:02:15.183Z,30.90
2019-02-09T10:06:35.200Z,29.10
2019-02-09T10:07:30.568Z,30.60
2019-02-09T10:10:04.006Z,27.93
2019-02-09T10:12:35.758Z,28.43
2019-02-09T10:15:07.970Z,27.07
2019-02-09T10:17:40.269Z,28.57
2019-02-09T10:20:18.065Z,27.13
2019-02-09T10:22:50.176Z,27.00
2019-02-09T10:25:19.375Z,24.43
2019-02-09T10:27:49.785Z,25.37
2019-02-09T10:30:21.842Z,21.23
2019-02-09T10:32:54.631Z,22.80
2019-02-09T10:35:26.207Z,21.40
2019-02-09T10:41:30.668Z,22.73
2019-02-09T10:44:04.220Z,19.27
2019-02-09T10:47:27.193Z,20.97
2019-02-09T10:56:45.116Z,22.17
2019-02-09T11:05:58.027Z,18.23
2019-02-09T11:08:09.099Z,20.27
2019-02-09T11:10:36.868Z,18.77
2019-02-09T11:13:01.353Z,18.17
2019-02-09T11:15:31.736Z,18.73
2019-02-09T11:18:00.658Z,20.17
2019-02-09T11:20:30.694Z,18.23
2019-02-09T11:22:59.819Z,17.20
2019-02-09T11:25:28.703Z,25.70
2019-02-09T11:27:57.601Z,19.83
2019-02-09T11:30:28.291Z,20.70
2019-02-09T11:33:02.134Z,20.60
2019-02-09T11:35:27.640Z,19.23
2019-02-09T11:37:56.471Z,21.87
2019-02-09T11:40:30.118Z,23.17
2019-02-09T11:42:59.519Z,16.70
2019-02-09T11:45:30.850Z,18.63
2019-02-09T11:48:00.015Z,22.43
2019-02-09T11:50:29.084Z,24.30
2019-02-09T11:52:58.057Z,17.60
2019-02-09T11:55:27.150Z,25.50
2019-02-09T11:57:56.053Z,19.77
2019-02-09T12:00:36.349Z,20.53
2019-02-09T12:03:14.754Z,21.03
2019-02-09T12:05:36.690Z,25.77
2019-02-09T12:08:07.237Z,24.27
2019-02-09T12:10:36.160Z,19.90
2019-02-09T12:13:06.093Z,20.73
2019-02-09T12:15:39.434Z,25.47
2019-02-09T12:18:13.825Z,20.93
2019-02-09T12:20:42.744Z,20.03
2019-02-09T12:23:11.453Z,20.50
2019-02-09T12:25:40.586Z,21.40
2019-02-09T12:28:11.444Z,21.90
2019-02-09T12:30:41.313Z,20.87
2019-02-09T12:33:11.989Z,20.67
2019-02-09T12:35:41.361Z,17.77
2019-02-09T12:38:10.458Z,19.50
2019-02-09T12:40:39.555Z,19.47
2019-02-09T12:43:08.705Z,21.40
2019-02-09T12:45:39.746Z,23.20
2019-02-09T12:48:09.824Z,20.67
2019-02-09T12:50:39.758Z,20.87
2019-02-09T12:53:09.128Z,21.00
2019-02-09T12:55:38.329Z,21.77
2019-02-09T12:58:07.529Z,17.60
2019-02-09T13:00:40.237Z,21.40
2019-02-09T13:03:11.723Z,21.27
2019-02-09T13:05:40.542Z,20.53
2019-02-09T13:08:09.368Z,22.10
2019-02-09T13:10:38.337Z,19.10
2019-02-09T13:13:07.147Z,20.87
2019-02-09T13:15:36.137Z,19.87
2019-02-09T13:18:05.716Z,19.33
2019-02-09T13:20:34.714Z,21.07
2019-02-09T13:23:03.904Z,19.00
2019-02-09T13:25:46.588Z,20.27
2019-02-09T13:28:21.250Z,16.70
2019-02-09T13:30:51.136Z,21.13
2019-02-09T13:33:30.124Z,19.90
2019-02-09T13:36:00.495Z,17.43
2019-02-09T13:38:29.354Z,19.93
2019-02-09T13:40:59.783Z,22.40
2019-02-09T13:43:30.677Z,21.53
2019-02-09T13:46:02.410Z,20.73
2019-02-09T13:48:43.805Z,19.27
2019-02-09T13:51:12.336Z,21.17
2019-02-09T13:53:41.262Z,25.60
2019-02-09T13:56:10.192Z,21.67
2019-02-09T13:58:40.675Z,23.47
2019-02-09T14:01:09.645Z,23.33
2019-02-09T14:03:46.537Z,22.97
2019-02-09T14:06:09.631Z,23.20
2019-02-09T14:08:38.485Z,25.90
2019-02-09T14:11:07.347Z,23.43
2019-02-09T14:13:38.335Z,25.10
2019-02-09T14:16:08.339Z,26.73
2019-02-09T14:18:43.199Z,27.80
2019-02-09T14:21:12.300Z,23.50
2019-02-09T14:23:41.049Z,25.53
2019-02-09T14:26:10.015Z,24.03
2019-02-09T14:28:38.898Z,24.90
2019-02-09T14:31:07.709Z,23.67
2019-02-09T14:33:36.604Z,24.43
2019-02-09T14:36:05.708Z,20.97
2019-02-09T14:38:34.844Z,24.40
2019-02-09T14:41:05.287Z,24.77
2019-02-09T14:43:34.231Z,22.70
2019-02-09T14:46:03.484Z,24.00
2019-02-09T14:48:32.501Z,23.83
2019-02-09T14:51:07.103Z,20.50
2019-02-09T14:53:45.676Z,27.40
2019-02-09T14:56:33.161Z,21.23
2019-02-09T14:59:04.621Z,20.60
2019-02-09T15:01:37.061Z,19.90
2019-02-09T15:04:08.894Z,23.90
2019-02-09T15:06:37.605Z,20.57
2019-02-09T15:09:08.590Z,25.53
2019-02-09T15:11:37.369Z,21.93
2019-02-09T15:14:06.693Z,25.73
2019-02-09T15:16:35.611Z,23.10
2019-02-09T15:19:09.113Z,22.97
2019-02-09T15:21:38.118Z,22.20
2019-02-09T15:24:09.392Z,22.83
2019-02-09T15:26:38.153Z,22.23
2019-02-09T15:29:07.007Z,22.10
2019-02-09T15:31:38.393Z,22.77
2019-02-09T15:34:10.395Z,22.53
2019-02-09T15:36:38.113Z,21.60
2019-02-09T15:39:08.513Z,21.07
2019-02-09T15:41:37.578Z,22.33
2019-02-09T15:44:06.460Z,22.07
2019-02-09T15:46:35.202Z,18.80
2019-02-09T15:49:04.218Z,21.73
2019-02-09T15:51:36.181Z,21.93
2019-02-09T15:54:08.017Z,21.17
2019-02-09T15:56:39.787Z,19.43
2019-02-09T15:59:10.431Z,20.93
2019-02-09T16:01:39.226Z,20.03
2019-02-09T16:04:08.115Z,19.43
2019-02-09T16:06:37.004Z,20.07
2019-02-09T16:09:07.390Z,21.63
2019-02-09T16:11:36.204Z,22.53
2019-02-09T16:14:05.000Z,22.63
2019-02-09T16:16:37.405Z,19.27
2019-02-09T16:19:10.188Z,19.27
2019-02-09T16:21:41.916Z,20.37
2019-02-09T16:24:10.955Z,21.13
2019-02-09T16:26:40.072Z,20.30
2019-02-09T16:29:15.427Z,19.00
2019-02-09T16:32:02.235Z,22.17
2019-02-09T16:34:31.127Z,22.03
2019-02-09T16:36:59.905Z,22.47
2019-02-09T16:39:30.138Z,21.40
2019-02-09T16:41:58.968Z,23.80
2019-02-09T16:44:27.646Z,21.07
2019-02-09T16:47:00.883Z,21.47
2019-02-09T16:49:31.253Z,23.80
2019-02-09T16:52:03.208Z,22.40
2019-02-09T16:54:32.137Z,22.50
2019-02-09T16:57:02.431Z,23.17
2019-02-09T16:59:31.222Z,18.37
2019-02-09T17:02:00.327Z,22.40
2019-02-09T17:04:33.200Z,23.40
2019-02-09T17:07:07.765Z,19.93
2019-02-09T17:09:40.904Z,21.80
2019-02-09T17:12:12.525Z,22.97
2019-02-09T17:14:41.508Z,21.40
2019-02-09T17:17:10.568Z,23.10
2019-02-09T17:19:39.438Z,20.37
2019-02-09T17:22:12.962Z,22.07
2019-02-09T17:24:43.260Z,23.13
2019-02-09T17:27:16.603Z,22.53
2019-02-09T17:29:46.989Z,23.17
2019-02-09T17:32:16.124Z,23.13
2019-02-09T17:34:44.948Z,25.50
2019-02-09T17:37:13.829Z,21.10
2019-02-09T17:39:43.880Z,24.07
2019-02-09T17:42:12.790Z,22.43
2019-02-09T17:44:41.502Z,20.67
2019-02-09T17:47:16.820Z,23.87
2019-02-09T17:49:49.913Z,22.23
2019-02-09T17:52:28.307Z,22.97
2019-02-09T17:54:57.084Z,21.77
2019-02-09T17:57:41.873Z,23.60
2019-02-09T18:00:16.707Z,23.13
2019-02-09T18:02:45.556Z,21.87
2019-02-09T18:05:20.338Z,22.23
2019-02-09T18:07:49.122Z,24.67
2019-02-09T18:10:22.806Z,26.43
2019-02-09T18:12:51.993Z,24.53
2019-02-09T18:15:27.785Z,20.67
2019-02-09T18:17:56.661Z,22.20
2019-02-09T18:20:25.534Z,19.50
2019-02-09T18:22:57.082Z,20.63
2019-02-09T18:25:28.731Z,21.57
2019-02-09T18:27:57.700Z,21.00
2019-02-09T18:30:33.444Z,19.63
2019-02-09T18:33:05.501Z,21.80
2019-02-09T18:35:41.435Z,20.23
2019-02-09T18:38:12.107Z,20.80
2019-02-09T18:40:41.044Z,21.93
2019-02-09T18:43:10.359Z,20.33
2019-02-09T18:45:39.142Z,25.47
2019-02-09T18:48:09.158Z,20.50
2019-02-09T18:50:37.986Z,18.17
2019-02-09T18:53:06.930Z,19.60
2019-02-09T18:55:39.603Z,20.07
2019-02-09T18:58:17.034Z,20.07
2019-02-09T19:00:48.643Z,20.23
2019-02-09T19:03:19.060Z,20.37
2019-02-09T19:05:52.680Z,19.10
2019-02-09T19:08:21.204Z,22.00
2019-02-09T19:11:04.648Z,19.03
2019-02-09T19:13:26.348Z,18.10
2019-02-09T19:15:59.283Z,19.63
2019-02-09T19:18:31.135Z,19.37
2019-02-09T19:21:00.469Z,20.30
2019-02-09T19:23:29.295Z,18.57
2019-02-09T19:25:58.165Z,19.47
2019-02-09T19:28:27.071Z,20.03
2019-02-09T19:30:55.763Z,19.37
2019-02-09T19:33:24.552Z,18.93
2019-02-09T19:35:53.631Z,19.03
2019-02-09T19:38:22.407Z,20.47
2019-02-09T19:40:52.997Z,19.97
2019-02-09T19:43:21.808Z,20.40
2019-02-09T19:45:50.651Z,19.07
2019-02-09T19:48:19.533Z,18.90
2019-02-09T19:50:48.387Z,19.47
2019-02-09T19:53:17.437Z,20.83
2019-02-09T19:55:46.264Z,18.50
2019-02-09T19:58:15.108Z,19.00
2019-02-09T20:00:49.152Z,19.33
2019-02-09T20:03:18.013Z,19.47
2019-02-09T20:05:46.884Z,21.83
2019-02-09T20:08:15.806Z,20.17
2019-02-09T20:10:44.739Z,19.10
2019-02-09T20:13:14.518Z,20.63
2019-02-09T20:15:43.293Z,18.87
2019-02-09T20:18:13.032Z,19.30
2019-02-09T20:20:47.015Z,21.47
2019-02-09T20:23:12.506Z,19.67
2019-02-09T20:25:41.267Z,19.83
2019-02-09T20:28:10.386Z,20.37
2019-02-09T20:30:40.676Z,20.00
2019-02-09T20:33:09.681Z,20.53
2019-02-09T20:35:38.551Z,19.87
2019-02-09T20:38:12.176Z,21.03
2019-02-09T20:40:55.877Z,20.57
2019-02-09T20:43:24.864Z,20.90
2019-02-09T20:45:53.804Z,21.53
2019-02-09T20:48:22.930Z,23.00
2019-02-09T20:50:51.810Z,22.40
2019-02-09T20:53:23.969Z,24.47
2019-02-09T20:55:52.801Z,20.80
2019-02-09T20:58:21.744Z,25.27
2019-02-09T21:00:50.629Z,22.33
2019-02-09T21:03:23.790Z,23.63
2019-02-09T21:05:57.524Z,24.07
2019-02-09T21:08:26.551Z,24.10
2019-02-09T21:10:55.547Z,23.53
2019-02-09T21:13:24.236Z,22.43
2019-02-09T21:15:53.229Z,29.07
2019-02-09T21:18:22.079Z,22.87
2019-02-09T21:20:50.897Z,25.23
2019-02-09T21:23:21.419Z,26.57
2019-02-09T21:25:50.283Z,25.37
2019-02-09T21:28:19.353Z,27.70
2019-02-09T21:30:51.132Z,22.83
2019-02-09T21:33:19.902Z,23.83
2019-02-09T21:35:52.944Z,26.97
2019-02-09T21:38:23.874Z,28.90
2019-02-09T21:40:52.455Z,26.47
2019-02-09T21:43:21.346Z,26.50
2019-02-09T21:46:08.098Z,25.40
2019-02-09T21:48:37.085Z,25.30
2019-02-09T21:51:05.986Z,28.07
2019-02-09T21:53:37.194Z,26.60
2019-02-09T21:56:09.139Z,26.50
2019-02-09T21:58:38.091Z,27.77
2019-02-09T22:01:09.925Z,23.37
2019-02-09T22:03:41.961Z,23.53
2019-02-09T22:06:12.575Z,28.20
2019-02-09T22:08:41.520Z,28.07
2019-02-09T22:11:10.398Z,28.03
2019-02-09T22:13:39.333Z,27.23
2019-02-09T22:16:08.098Z,25.50
2019-02-09T22:18:37.157Z,22.90
2019-02-09T22:21:06.383Z,24.67
2019-02-09T22:23:35.232Z,23.83
2019-02-09T22:26:04.159Z,26.33
2019-02-09T22:28:32.955Z,27.13
2019-02-09T22:31:03.487Z,27.97
2019-02-09T22:33:32.377Z,28.73
2019-02-09T22:36:02.198Z,27.43
2019-02-09T22:38:31.393Z,29.40
2019-02-09T22:41:00.318Z,27.20
2019-02-09T22:43:29.174Z,25.57
2019-02-09T22:45:58.145Z,25.43
2019-02-09T22:48:29.690Z,28.30
2019-02-09T22:50:58.443Z,27.67
2019-02-09T22:53:27.478Z,25.67
2019-02-09T22:55:56.479Z,25.50
2019-02-09T22:58:25.404Z,25.67
2019-02-09T23:01:09.831Z,25.93
2019-02-09T23:03:47.764Z,24.70
2019-02-09T23:06:31.331Z,27.47
2019-02-09T23:09:00.209Z,27.77
2019-02-09T23:11:30.734Z,23.93
2019-02-09T23:13:59.582Z,28.50
2019-02-09T23:16:28.569Z,24.50
2019-02-09T23:18:57.413Z,24.13
2019-02-09T23:21:26.125Z,29.97
2019-02-09T23:24:26.761Z,29.93
2019-02-09T23:26:47.235Z,30.63
2019-02-09T23:29:16.072Z,31.47
2019-02-09T23:31:44.726Z,23.90
2019-02-09T23:34:22.256Z,28.37
2019-02-09T23:36:51.131Z,26.93
2019-02-09T23:39:19.961Z,26.60
2019-02-09T23:41:48.990Z,29.13
2019-02-09T23:44:17.981Z,28.57
2019-02-09T23:46:46.839Z,28.63
2019-02-09T23:49:15.796Z,24.93
2019-02-09T23:51:44.589Z,26.80
2019-02-09T23:54:13.583Z,25.40
2019-02-09T23:56:42.457Z,28.53
2019-02-09T23:59:15.965Z,25.93
